Time;durP1;ratioP1;P1;durP2;ratioP2;P2;SDS_P1;SDS_P2;PMS_P1;PMS_P2;Temp;Humidity;BMP_temperature;BMP_pressure;BME280_temperature;BME280_humidity;BME280_pressure;Samples;Min_cycle;Max_cycle;Signal;HPM_P1;HPM_P2
2023/03/09 00:01:32;;;;;;;25.50;13.32;;;;;;;0.58;83.25;98292.38;1757412;80;26577;-50
2023/03/09 00:04:02;;;;;;;25.72;14.93;;;;;;;0.54;83.26;98293.51;1776925;79;25765;-49
2023/03/09 00:06:30;;;;;;;30.88;14.53;;;;;;;0.52;83.38;98298.33;1809977;79;27478;-49
2023/03/09 00:08:58;;;;;;;31.37;16.62;;;;;;;0.53;83.49;98299.38;1788880;80;25898;-49
2023/03/09 00:11:26;;;;;;;30.43;15.98;;;;;;;0.55;83.71;98309.73;1809792;79;25130;-50
2023/03/09 00:13:53;;;;;;;35.33;19.07;;;;;;;0.55;83.68;98310.52;1788977;80;25544;-50
2023/03/09 00:16:29;;;;;;;43.75;22.25;;;;;;;0.56;83.64;98313.95;1804602;79;25626;-50
2023/03/09 00:18:58;;;;;;;61.13;30.05;;;;;;;0.54;83.68;98312.12;1810050;79;27597;-50
2023/03/09 00:21:36;;;;;;;51.25;26.60;;;;;;;0.53;83.75;98318.55;1810030;79;25785;-51
2023/03/09 00:24:12;;;;;;;43.25;20.55;;;;;;;0.53;83.96;98319.88;1809975;79;25582;-50
2023/03/09 00:26:44;;;;;;;32.42;16.73;;;;;;;0.52;84.31;98315.63;1789114;80;25689;-50
2023/03/09 00:29:13;;;;;;;24.00;14.10;;;;;;;0.49;84.25;98308.22;1777593;79;25630;-50
2023/03/09 00:31:42;;;;;;;31.63;16.20;;;;;;;0.60;84.14;98326.94;1810251;79;27490;-50
2023/03/09 00:34:11;;;;;;;36.55;17.40;;;;;;;0.60;84.14;98326.94;1789163;80;25597;-51
2023/03/09 00:36:39;;;;;;;32.65;16.55;;;;;;;0.51;84.28;98310.05;1810113;79;25447;-50
2023/03/09 00:39:07;;;;;;;29.30;14.80;;;;;;;0.50;84.49;98311.92;1789376;80;25730;-54
2023/03/09 00:41:34;;;;;;;27.82;13.43;;;;;;;0.50;84.49;98311.92;1803770;79;25594;-50
2023/03/09 00:44:05;;;;;;;25.92;13.13;;;;;;;0.50;84.40;98308.48;1789126;79;27482;-49
2023/03/09 00:46:34;;;;;;;23.47;13.15;;;;;;;0.48;84.40;98304.00;1809938;79;25830;-50
2023/03/09 00:49:05;;;;;;;21.95;11.68;;;;;;;0.48;84.46;98302.67;1758474;80;25491;-50
2023/03/09 00:51:36;;;;;;;21.25;10.68;;;;;;;0.48;84.52;98299.45;1803720;79;25489;-50
2023/03/09 00:54:06;;;;;;;91.17;83.72;;;;;;;0.48;84.79;98298.68;1789136;80;25581;-49
2023/03/09 00:56:32;;;;;;;32.23;17.27;;;;;;;0.44;84.76;98296.33;1803729;79;27560;-52
2023/03/09 00:59:01;;;;;;;27.48;15.35;;;;;;;0.44;84.94;98289.69;1788988;80;25583;-50
2023/03/09 01:01:28;;;;;;;28.75;14.95;;;;;;;0.45;84.97;98288.06;1810078;78;25470;-49
2023/03/09 01:03:54;;;;;;;28.77;14.65;;;;;;;0.50;85.05;98293.85;1809912;79;25610;-50
2023/03/09 01:06:24;;;;;;;23.22;13.60;;;;;;;0.50;85.07;98287.20;1809947;79;25557;-50
2023/03/09 01:08:53;;;;;;;25.90;14.35;;;;;;;0.48;85.07;98280.84;1809971;79;27171;-51
2023/03/09 01:11:23;;;;;;;28.75;15.53;;;;;;;0.49;85.23;98276.30;1810005;78;25541;-50
2023/03/09 01:13:49;;;;;;;24.55;13.00;;;;;;;0.48;85.22;98270.75;1810125;79;25575;-51
2023/03/09 01:16:16;;;;;;;27.10;12.95;;;;;;;0.46;85.52;98271.55;1809870;79;27688;-54
2023/03/09 01:18:42;;;;;;;20.50;12.28;;;;;;;0.43;85.39;98275.60;1789077;80;25549;-50
2023/03/09 01:21:10;;;;;;;22.98;13.60;;;;;;;0.44;85.42;98270.52;1809938;79;27634;-50
2023/03/09 01:23:40;;;;;;;23.80;13.70;;;;;;;0.44;85.35;98272.39;1777767;79;25552;-50
2023/03/09 01:26:08;;;;;;;22.48;12.45;;;;;;;0.44;85.34;98278.49;1789117;80;25537;-50
2023/03/09 01:28:37;;;;;;;22.10;12.95;;;;;;;0.43;85.48;98274.27;1803472;79;25471;-50
2023/03/09 01:31:15;;;;;;;23.02;13.38;;;;;;;0.43;85.63;98278.27;1789249;80;25459;-50
2023/03/09 01:33:43;;;;;;;22.90;13.05;;;;;;;0.41;85.72;98279.09;1809961;78;27706;-51
2023/03/09 01:36:15;;;;;;;21.68;12.80;;;;;;;0.41;85.79;98275.11;1809856;79;25375;-48
2023/03/09 01:38:43;;;;;;;22.85;12.70;;;;;;;0.40;85.92;98264.76;1809966;79;25549;-48
2023/03/09 01:41:13;;;;;;;21.85;12.53;;;;;;;0.39;85.96;98265.83;1809888;78;25490;-49
2023/03/09 01:43:44;;;;;;;22.45;12.73;;;;;;;0.38;86.02;98264.27;1810003;79;25638;-49
2023/03/09 01:46:36;;;;;;;21.33;12.78;;;;;;;0.36;86.08;98264.00;1809958;79;27522;-49
2023/03/09 01:49:23;;;;;;;21.57;11.93;;;;;;;0.35;86.23;98269.61;1809783;78;25535;-53
2023/03/09 01:52:07;;;;;;;20.85;11.03;;;;;;;0.35;86.19;98276.27;1795836;79;25617;-49
2023/03/09 01:54:45;;;;;;;20.60;12.95;;;;;;;0.34;86.32;98268.02;1809861;79;25594;-50
2023/03/09 01:57:34;;;;;;;37.80;34.05;;;;;;;0.32;86.31;98272.33;1810110;79;25374;-49
2023/03/09 02:00:15;;;;;;;18.57;10.70;;;;;;;0.33;86.39;98271.23;1810020;79;27492;-49
2023/03/09 02:02:47;;;;;;;21.65;11.50;;;;;;;0.38;86.39;98270.91;1809825;79;25713;-49
2023/03/09 02:05:19;;;;;;;19.30;11.08;;;;;;;0.36;86.40;98279.19;1809947;79;25388;-50
2023/03/09 02:07:50;;;;;;;19.23;11.40;;;;;;;0.34;86.46;98277.33;1804593;79;25743;-53
2023/03/09 02:10:36;;;;;;;19.55;11.55;;;;;;;0.33;86.50;98285.86;1789206;80;25447;-50
2023/03/09 02:13:09;;;;;;;19.15;10.85;;;;;;;0.33;86.59;98277.87;1809949;78;27444;-54
2023/03/09 02:15:36;;;;;;;17.32;9.98;;;;;;;0.33;86.63;98275.77;1809880;79;25395;-53
2023/03/09 02:18:04;;;;;;;33.53;26.82;;;;;;;0.32;86.70;98278.16;1809856;79;25359;-50
2023/03/09 02:21:07;;;;;;;21.95;10.65;;;;;;;0.30;86.57;98267.81;1809826;79;26041;-50
2023/03/09 02:23:47;;;;;;;19.27;10.15;;;;;;;0.30;86.60;98272.36;1805382;79;25438;-50
2023/03/09 02:26:25;;;;;;;19.95;12.15;;;;;;;0.31;86.63;98276.60;1809580;79;27633;-51
2023/03/09 02:28:52;;;;;;;21.35;12.90;;;;;;;0.34;86.77;98281.31;1717091;82;27353;-50
2023/03/09 02:31:20;;;;;;;21.70;12.82;;;;;;;0.34;86.66;98282.65;1729784;82;25557;-48
2023/03/09 02:33:47;;;;;;;23.57;13.13;;;;;;;0.31;86.63;98278.72;1729515;82;25689;-48
2023/03/09 02:36:14;;;;;;;22.27;13.58;;;;;;;0.31;86.69;98276.60;1729816;82;25465;-50
2023/03/09 02:38:41;;;;;;;25.95;13.88;;;;;;;0.29;86.80;98291.52;1754986;81;27437;-49
2023/03/09 02:41:11;;;;;;;27.58;15.68;;;;;;;0.28;86.81;98280.62;1755212;81;26009;-49
2023/03/09 02:43:45;;;;;;;27.15;15.20;;;;;;;0.28;86.77;98289.14;1729520;83;25694;-50
2023/03/09 02:46:13;;;;;;;27.73;15.18;;;;;;;0.26;86.80;98296.08;1729796;82;25648;-49
2023/03/09 02:48:39;;;;;;;28.50;15.78;;;;;;;0.26;86.83;98292.64;1729549;83;25583;-50
2023/03/09 02:51:06;;;;;;;28.98;17.02;;;;;;;0.24;86.91;98292.12;1755322;81;28368;-50
2023/03/09 02:53:36;;;;;;;31.05;17.30;;;;;;;0.24;87.02;98297.44;1729398;83;25435;-49
2023/03/09 02:56:04;;;;;;;29.50;16.50;;;;;;;0.22;87.01;98297.72;1729957;82;25672;-50
2023/03/09 02:58:31;;;;;;;28.23;15.57;;;;;;;0.18;86.96;98300.72;1729755;83;25750;-50
2023/03/09 03:00:57;;;;;;;30.68;16.25;;;;;;;0.16;87.02;98288.26;1729759;82;25576;-50
2023/03/09 03:03:23;;;;;;;25.55;14.20;;;;;;;0.15;87.09;98283.48;1729535;83;27484;-51
2023/03/09 03:05:50;;;;;;;23.92;13.78;;;;;;;0.15;87.09;98281.34;1748515;80;25583;-50
2023/03/09 03:08:18;;;;;;;28.42;15.85;;;;;;;0.14;87.03;98270.48;1797430;78;25458;-51
2023/03/09 03:10:44;;;;;;;27.87;15.05;;;;;;;0.11;87.10;98274.50;1827352;78;27687;-53
2023/03/09 03:13:11;;;;;;;26.23;14.00;;;;;;;0.09;87.39;98265.24;1794873;80;25427;-51
2023/03/09 03:15:37;;;;;;;25.80;13.30;;;;;;;0.07;87.17;98270.03;1827434;77;27470;-53
2023/03/09 03:18:05;;;;;;;27.05;13.80;;;;;;;0.04;87.13;98270.64;1794871;80;25939;-49
2023/03/09 03:20:31;;;;;;;21.85;12.53;;;;;;;0.03;87.34;98273.81;1822363;78;25603;-52
2023/03/09 03:22:58;;;;;;;27.98;13.70;;;;;;;0.01;87.34;98268.00;1794856;80;25431;-50
2023/03/09 03:25:24;;;;;;;23.45;12.68;;;;;;;0.01;87.49;98277.30;1806185;79;25440;-49
2023/03/09 03:27:50;;;;;;;20.80;10.95;;;;;;;-0.01;87.47;98280.25;1794865;80;27450;-49
2023/03/09 03:30:19;;;;;;;26.73;13.08;;;;;;;-0.02;87.46;98279.20;1781225;79;31790;-50
2023/03/09 03:32:51;;;;;;;21.07;12.03;;;;;;;-0.02;87.60;98291.98;1778774;79;25437;-49
2023/03/09 03:35:16;;;;;;;22.05;12.73;;;;;;;-0.01;87.57;98291.42;1809248;79;27950;-51
2023/03/09 03:37:42;;;;;;;19.60;11.30;;;;;;;0.01;87.64;98291.14;1809862;78;25534;-50
2023/03/09 03:40:12;;;;;;;23.80;12.58;;;;;;;0.01;87.63;98293.80;1809854;78;27489;-49
2023/03/09 03:42:38;;;;;;;19.75;10.70;;;;;;;0.01;87.66;98289.27;1809903;79;25583;-54
2023/03/09 03:45:07;;;;;;;20.75;10.80;;;;;;;0.02;87.59;98288.72;1788956;80;25376;-50
2023/03/09 03:47:35;;;;;;;21.52;10.32;;;;;;;0.02;87.66;98287.39;1809661;79;25613;-50
2023/03/09 03:50:03;;;;;;;20.17;10.08;;;;;;;0.02;87.60;98287.39;1809976;79;25391;-50
2023/03/09 03:52:29;;;;;;;18.00;10.23;;;;;;;0.00;87.67;98289.03;1751325;79;27405;-50
2023/03/09 03:54:56;;;;;;;19.95;10.15;;;;;;;-0.03;87.72;98292.27;1757821;80;25566;-50
2023/03/09 03:57:22;;;;;;;17.73;9.68;;;;;;;-0.05;87.80;98293.06;1803714;79;25415;-50
2023/03/09 03:59:51;;;;;;;16.80;8.38;;;;;;;-0.04;87.82;98298.64;1759005;80;25526;-50
2023/03/09 04:02:17;;;;;;;28.32;25.52;;;;;;;-0.04;88.02;98303.95;1810059;79;25474;-50
2023/03/09 04:04:44;;;;;;;17.90;10.20;;;;;;;-0.04;87.83;98310.60;1789163;80;28541;-48
2023/03/09 04:07:10;;;;;;;23.00;12.57;;;;;;;-0.05;87.79;98314.33;1809900;79;30041;-49
2023/03/09 04:09:36;;;;;;;18.80;10.48;;;;;;;-0.04;87.91;98320.69;1789147;80;25537;-53
2023/03/09 04:12:04;;;;;;;18.92;11.05;;;;;;;-0.05;87.77;98327.09;1809998;79;25572;-49
2023/03/09 04:14:33;;;;;;;20.90;11.57;;;;;;;-0.04;87.83;98326.00;1789219;80;25379;-52
2023/03/09 04:17:00;;;;;;;19.53;11.70;;;;;;;-0.04;87.85;98322.56;1778532;79;27490;-50
2023/03/09 04:19:26;;;;;;;18.35;10.82;;;;;;;-0.04;87.79;98323.89;1809990;79;27362;-50
2023/03/09 04:21:53;;;;;;;17.67;10.28;;;;;;;-0.05;87.79;98327.09;1778353;79;25545;-51
2023/03/09 04:24:19;;;;;;;17.62;10.58;;;;;;;-0.04;87.81;98334.52;1809984;78;34737;-49
2023/03/09 04:26:46;;;;;;;18.67;10.23;;;;;;;-0.05;87.94;98331.60;1809992;79;25554;-51
2023/03/09 04:29:12;;;;;;;18.30;10.23;;;;;;;-0.05;87.87;98332.41;1777171;79;27386;-49
2023/03/09 04:31:38;;;;;;;21.17;9.80;;;;;;;-0.06;87.80;98324.17;1801908;79;25643;-50
2023/03/09 04:34:04;;;;;;;18.40;10.38;;;;;;;-0.06;87.77;98316.20;1802082;79;25504;-50
2023/03/09 04:36:31;;;;;;;14.53;8.73;;;;;;;-0.07;87.76;98317.30;1802108;78;25516;-50
2023/03/09 04:38:58;;;;;;;49.83;45.35;;;;;;;-0.09;87.73;98311.45;1802088;79;25577;-50
2023/03/09 04:41:24;;;;;;;12.78;7.37;;;;;;;-0.11;87.78;98305.64;1802016;79;27022;-49
2023/03/09 04:43:50;;;;;;;19.45;7.95;;;;;;;-0.11;87.69;98301.66;1801901;79;25982;-50
2023/03/09 04:46:16;;;;;;;15.20;7.47;;;;;;;-0.12;87.74;98308.58;1802140;79;25636;-53
2023/03/09 04:48:44;;;;;;;13.30;7.75;;;;;;;-0.12;87.60;98311.24;1801952;79;25592;-50
2023/03/09 04:51:10;;;;;;;86.97;79.65;;;;;;;-0.12;87.58;98317.89;1802108;79;25444;-50
2023/03/09 04:53:36;;;;;;;15.75;9.38;;;;;;;-0.13;87.67;98322.97;1801962;79;27556;-50
2023/03/09 04:56:04;;;;;;;14.55;8.88;;;;;;;-0.11;87.65;98340.20;1755522;79;25801;-50
2023/03/09 04:58:31;;;;;;;16.60;9.15;;;;;;;-0.12;87.60;98344.47;1801986;79;25474;-50
2023/03/09 05:00:57;;;;;;;18.95;9.53;;;;;;;-0.12;87.70;98341.80;1801939;79;25481;-50
2023/03/09 05:03:24;;;;;;;16.15;9.55;;;;;;;-0.12;87.78;98333.31;1781920;79;25603;-50
2023/03/09 05:05:50;;;;;;;18.32;10.30;;;;;;;-0.12;87.77;98335.97;1801992;79;29593;-50
2023/03/09 05:08:17;;;;;;;13.00;9.15;;;;;;;-0.14;87.72;98335.45;1801860;79;25526;-50
2023/03/09 05:10:43;;;;;;;16.10;9.38;;;;;;;-0.14;87.66;98332.00;1802008;79;25438;-51
2023/03/09 05:13:10;;;;;;;20.30;10.18;;;;;;;-0.15;87.70;98331.22;1802062;79;25614;-50
2023/03/09 05:15:41;;;;;;;16.05;10.10;;;;;;;-0.18;87.68;98325.69;1802045;79;25639;-51
2023/03/09 05:18:11;;;;;;;17.80;11.15;;;;;;;-0.17;87.76;98327.25;1802028;79;27509;-51
2023/03/09 05:20:38;;;;;;;;;;;;;;;-0.21;87.79;98311.88;1784769;79;25460;-50
2023/03/09 05:23:05;;;;;;;20.12;10.50;;;;;;;-0.22;87.72;98308.20;1802049;78;25619;-48
2023/03/09 05:25:33;;;;;;;19.67;10.30;;;;;;;-0.24;87.79;98323.10;1801967;79;25532;-50
2023/03/09 05:28:00;;;;;;;19.75;11.10;;;;;;;-0.25;87.86;98335.34;1802027;79;25458;-51
2023/03/09 05:30:28;;;;;;;20.43;11.05;;;;;;;-0.27;87.99;98326.33;1817009;78;27580;-51
2023/03/09 05:32:54;;;;;;;20.48;11.35;;;;;;;-0.27;88.02;98336.95;1794794;80;25430;-49
2023/03/09 05:35:22;;;;;;;18.95;10.82;;;;;;;-0.27;88.10;98335.62;1827456;78;25422;-54
2023/03/09 05:37:48;;;;;;;20.30;11.12;;;;;;;-0.28;87.98;98335.91;1794906;80;25401;-50
2023/03/09 05:40:20;;;;;;;18.20;11.03;;;;;;;-0.28;88.05;98342.00;1827484;78;25641;-50
2023/03/09 05:42:47;;;;;;;19.77;9.90;;;;;;;-0.29;88.04;98336.97;1794784;80;27590;-50
2023/03/09 05:45:13;;;;;;;22.02;11.68;;;;;;;-0.29;88.14;98342.28;1794811;80;25414;-50
2023/03/09 05:47:40;;;;;;;22.58;12.30;;;;;;;-0.24;88.24;98356.83;1827462;78;25374;-50
2023/03/09 05:50:10;;;;;;;21.65;10.75;;;;;;;-0.24;88.21;98351.52;1794852;80;27754;-50
2023/03/09 05:52:36;;;;;;;;;;;;;;;-0.25;88.21;98349.41;1825756;78;25559;-51
2023/03/09 05:55:05;;;;;;;21.67;12.13;;;;;;;-0.23;88.26;98341.94;1827524;78;27563;-51
2023/03/09 05:57:33;;;;;;;24.40;13.65;;;;;;;-0.21;88.35;98346.97;1766096;80;25475;-53
2023/03/09 05:59:59;;;;;;;23.38;11.90;;;;;;;-0.20;88.28;98348.02;1827496;78;25462;-51
2023/03/09 06:02:25;;;;;;;24.65;13.65;;;;;;;-0.21;88.23;98346.97;1794908;80;25619;-51
2023/03/09 06:04:53;;;;;;;24.63;12.43;;;;;;;-0.20;88.19;98354.66;1827518;78;25629;-52
2023/03/09 06:07:22;;;;;;;23.25;12.13;;;;;;;-0.22;88.16;98350.17;1794935;80;28509;-54
2023/03/09 06:09:50;;;;;;;23.40;11.80;;;;;;;-0.24;88.10;98351.00;1827338;78;25540;-52
2023/03/09 06:12:17;;;;;;;27.82;14.15;;;;;;;-0.23;88.23;98348.58;1766353;80;25697;-51
2023/03/09 06:14:51;;;;;;;28.95;16.02;;;;;;;-0.23;88.24;98351.78;1806730;79;25546;-50
2023/03/09 06:17:18;;;;;;;26.97;14.73;;;;;;;-0.22;88.25;98352.83;1795000;80;25627;-53
2023/03/09 06:19:45;;;;;;;33.88;17.77;;;;;;;-0.23;88.26;98355.22;1824183;78;27353;-51
2023/03/09 06:22:12;;;;;;;45.75;17.30;;;;;;;-0.24;88.23;98358.97;1794795;80;25787;-50
2023/03/09 06:24:39;;;;;;;44.13;17.55;;;;;;;-0.20;88.42;98361.84;1827472;78;25565;-50
2023/03/09 06:27:07;;;;;;;31.42;14.25;;;;;;;-0.18;88.41;98369.54;1795136;80;25500;-50
2023/03/09 06:29:34;;;;;;;29.18;14.10;;;;;;;-0.16;88.44;98374.80;1827277;78;25551;-49
2023/03/09 06:32:00;;;;;;;26.57;13.62;;;;;;;-0.15;88.49;98380.91;1765874;80;27296;-49
2023/03/09 06:34:29;;;;;;;26.15;11.75;;;;;;;-0.14;88.37;98373.98;1827137;78;25884;-50
2023/03/09 06:36:56;;;;;;;24.05;12.55;;;;;;;-0.14;88.34;98371.32;1794824;79;25393;-48
2023/03/09 06:39:23;;;;;;;28.52;13.83;;;;;;;-0.10;88.57;98367.55;1779228;79;25589;-50
2023/03/09 06:41:51;;;;;;;27.73;12.90;;;;;;;-0.06;88.74;98369.36;1765978;80;25414;-52
2023/03/09 06:44:18;;;;;;;24.27;12.35;;;;;;;0.01;88.78;98369.56;1827408;78;27559;-50
2023/03/09 06:46:47;;;;;;;24.30;11.48;;;;;;;0.05;88.93;98374.55;1794788;80;26186;-51
2023/03/09 06:49:14;;;;;;;18.75;8.00;;;;;;;0.08;88.54;98381.95;1827642;78;25452;-54
2023/03/09 06:51:42;;;;;;;27.90;12.15;;;;;;;0.09;88.53;98376.91;1794767;80;25508;-51
2023/03/09 06:54:10;;;;;;;24.92;15.48;;;;;;;0.16;88.92;98385.31;1806690;79;25625;-52
2023/03/09 06:56:36;;;;;;;25.88;15.38;;;;;;;0.20;88.62;98388.96;1794872;80;28116;-49
2023/03/09 06:59:03;;;;;;;22.98;12.37;;;;;;;0.22;88.61;98384.69;1827334;78;25583;-52
2023/03/09 07:01:31;;;;;;;26.75;17.73;;;;;;;0.23;88.42;98376.42;1794836;80;25477;-51
2023/03/09 07:03:57;;;;;;;24.75;10.85;;;;;;;0.23;88.22;98368.45;1827349;78;25538;-50
2023/03/09 07:06:25;;;;;;;22.60;10.55;;;;;;;0.23;88.07;98375.09;1794224;80;25272;-49
2023/03/09 07:08:52;;;;;;;21.17;11.45;;;;;;;0.26;88.42;98371.88;1826531;77;28114;-51
2023/03/09 07:11:19;;;;;;;19.82;9.95;;;;;;;0.34;88.56;98374.41;1794697;80;25459;-49
2023/03/09 07:13:46;;;;;;;24.90;12.68;;;;;;;0.35;88.30;98368.80;1794918;80;25449;-49
2023/03/09 07:16:12;;;;;;;20.12;12.63;;;;;;;0.36;87.92;98369.06;1827452;78;25602;-49
2023/03/09 07:18:38;;;;;;;20.95;10.35;;;;;;;0.41;88.17;98367.39;1794980;80;25450;-50
2023/03/09 07:21:06;;;;;;;30.52;25.95;;;;;;;0.42;88.60;98370.31;1827487;78;27587;-49
2023/03/09 07:23:33;;;;;;;21.10;11.10;;;;;;;0.40;87.78;98363.95;1794701;79;25459;-53
2023/03/09 07:26:03;;;;;;;26.73;18.52;;;;;;;0.39;87.89;98365.57;1824132;78;25609;-52
2023/03/09 07:28:32;;;;;;;21.48;11.48;;;;;;;0.41;87.96;98365.55;1794873;80;25996;-49
2023/03/09 07:31:09;;;;;;;57.03;51.50;;;;;;;0.45;88.03;98373.19;1806264;79;25455;-52
2023/03/09 07:33:36;;;;;;;21.50;11.88;;;;;;;0.51;88.17;98373.38;1794253;80;27477;-49
2023/03/09 07:36:06;;;;;;;17.05;10.68;;;;;;;0.57;87.81;98379.95;1827322;78;25455;-48
2023/03/09 07:38:33;;;;;;;91.50;84.10;;;;;;;0.58;87.64;98380.99;1795034;80;25546;-48
2023/03/09 07:41:01;;;;;;;87.10;80.20;;;;;;;0.56;87.22;98379.14;1827346;77;25549;-48
2023/03/09 07:43:28;;;;;;;82.60;75.57;;;;;;;0.59;87.60;98381.22;1794897;80;25585;-51
2023/03/09 07:45:55;;;;;;;80.80;74.17;;;;;;;0.57;87.27;98378.07;1827391;78;28489;-51
2023/03/09 07:48:22;;;;;;;78.90;72.77;;;;;;;0.53;86.91;98373.88;1794753;80;25523;-49
2023/03/09 07:50:59;;;;;;;20.52;10.40;;;;;;;0.48;87.07;98358.53;1797048;78;25652;-49
2023/03/09 07:53:29;;;;;;;83.03;76.50;;;;;;;0.57;86.96;98388.71;1794842;80;25623;-50
2023/03/09 07:56:02;;;;;;;80.20;73.97;;;;;;;0.53;86.93;98385.06;1827534;78;25391;-49
2023/03/09 07:58:28;;;;;;;80.47;74.17;;;;;;;-1.49;86.99;98005.65;1794626;80;28081;-50
2023/03/09 08:00:55;;;;;;;77.20;71.20;;;;;;;;;;1827286;78;25502;-50
2023/03/09 08:03:21;;;;;;;86.50;79.37;;;;;;;;;;1796714;78;25476;-49
2023/03/09 08:05:49;;;;;;;65.53;60.43;;;;;;;;;;1827354;78;32535;-50
2023/03/09 08:08:16;;;;;;;;;;;;;;;;;;1830172;78;25424;-50
2023/03/09 08:10:51;;;;;;;8.20;7.80;;;;;;;;;;1827394;78;27460;-50
2023/03/09 08:13:17;;;;;;;8.83;8.33;;;;;;;;;;1827300;78;25416;-50
2023/03/09 08:15:45;;;;;;;9.00;8.53;;;;;;;;;;1827408;78;25597;-48
2023/03/09 08:18:13;;;;;;;8.17;7.73;;;;;;;;;;1827368;78;25552;-50
2023/03/09 08:20:40;;;;;;;7.43;7.07;;;;;;;;;;1797164;78;25581;-50
2023/03/09 08:23:07;;;;;;;7.20;6.90;;;;;;;;;;1827398;78;27462;-49
2023/03/09 08:25:35;;;;;;;7.93;7.53;;;;;;;;;;1827257;78;25411;-50
2023/03/09 08:28:03;;;;;;;10.63;8.63;;;;;;;;;;1827412;78;25395;-49
2023/03/09 08:30:31;;;;;;;18.05;11.40;;;;;;;;;;1823476;78;25650;-49
2023/03/09 08:32:58;;;;;;;19.62;11.63;;;;;;;;;;1809926;79;25396;-49
2023/03/09 08:35:28;;;;;;;19.02;12.33;;;;;;;;;;1777687;79;28665;-49
2023/03/09 08:37:55;;;;;;;15.80;10.72;;;;;;;;;;1808317;79;25455;-49
2023/03/09 08:40:23;;;;;;;18.67;11.00;;;;;;;;;;1810047;79;25542;-53
2023/03/09 08:42:49;;;;;;;16.48;11.22;;;;;;;;;;1809977;79;25741;-49
2023/03/09 08:45:15;;;;;;;16.73;10.45;;;;;;;;;;1810015;79;32563;-49
2023/03/09 08:47:41;;;;;;;17.87;11.65;;;;;;;;;;1777840;79;27980;-48
2023/03/09 08:50:09;;;;;;;15.98;11.25;;;;;;;;;;1778240;79;25651;-51
2023/03/09 08:52:39;;;;;;;15.38;9.98;;;;;;;;;;1805130;79;25544;-50
2023/03/09 08:55:08;;;;;;;15.08;10.55;;;;;;;;;;1810095;79;25546;-48
2023/03/09 08:57:36;;;;;;;14.30;9.90;;;;;;;;;;1778301;79;25416;-50
2023/03/09 09:00:05;;;;;;;15.48;10.03;;;;;;;;;;1809926;79;27509;-50
2023/03/09 09:02:32;;;;;;;15.60;9.80;;;;;;;;;;1751245;79;25864;-53
2023/03/09 09:04:58;;;;;;;13.15;9.13;;;;;;;;;;1809941;79;25402;-49
2023/03/09 09:07:25;;;;;;;17.05;9.80;;;;;;;;;;1777653;79;25581;-49
2023/03/09 09:09:51;;;;;;;15.38;9.43;;;;;;;;;;1809948;79;25478;-50
2023/03/09 09:12:17;;;;;;;16.95;10.43;;;;;;;;;;1809957;79;27738;-49
2023/03/09 09:14:44;;;;;;;14.95;9.33;;;;;;;;;;1809890;79;32397;-49
2023/03/09 09:17:11;;;;;;;16.87;9.38;;;;;;;;;;1809927;79;25456;-49
2023/03/09 09:19:39;;;;;;;11.88;8.40;;;;;;;;;;1809966;79;25556;-49
2023/03/09 09:22:08;;;;;;;17.15;9.53;;;;;;;;;;1810001;79;25534;-48
2023/03/09 09:24:36;;;;;;;17.07;9.93;;;;;;;;;;1810098;79;28117;-48
2023/03/09 09:27:05;;;;;;;13.05;8.78;;;;;;;;;;1809839;79;25477;-48
2023/03/09 09:29:33;;;;;;;11.60;6.60;;;;;;;;;;1810131;79;25397;-49
2023/03/09 09:32:01;;;;;;;13.00;9.03;;;;;;;;;;1822380;77;25496;-50
2023/03/09 09:34:32;;;;;;;14.58;9.00;;;;;;;;;;1827620;78;25577;-53
2023/03/09 09:37:02;;;;;;;15.03;8.80;;;;;;;;;;1827565;78;27464;-48
2023/03/09 09:39:31;;;;;;;11.50;8.15;;;;;;;;;;1827459;78;25541;-49
2023/03/09 09:42:15;;;;;;;12.07;8.65;;;;;;;;;;1771596;78;25601;-49
2023/03/09 09:44:44;;;;;;;12.82;7.83;;;;;;;;;;1827504;78;26510;-49
2023/03/09 09:47:18;;;;;;;19.90;18.00;;;;;;;;;;1795127;80;25537;-50
2023/03/09 09:49:48;;;;;;;14.68;8.00;;;;;;;;;;1794937;80;27605;-49
2023/03/09 09:52:47;;;;;;;15.05;7.83;;;;;;;;;;1794964;80;25407;-52
2023/03/09 09:55:21;;;;;;;;;;;;;;;;;;1797679;80;25615;-49
2023/03/09 09:58:00;;;;;;;79.40;73.57;;;;;;;;;;1794608;80;25942;-49
2023/03/09 10:00:41;;;;;;;60.12;55.70;;;;;;;;;;1795131;80;25557;-49
2023/03/09 10:03:28;;;;;;;12.23;11.40;;;;;;;;;;1727998;83;27500;-49
2023/03/09 10:06:03;;;;;;;8.23;7.80;;;;;;;;;;1728060;83;25443;-50
2023/03/09 10:08:45;;;;;;;7.43;7.03;;;;;;;;;;1727765;83;25565;-49
2023/03/09 10:11:29;;;;;;;7.13;6.77;;;;;;;;;;1727976;83;25504;-49
2023/03/09 10:14:18;;;;;;;6.97;6.67;;;;;;;;;;1728076;83;25485;-50
2023/03/09 10:16:51;;;;;;;8.27;7.80;;;;;;;;;;1728058;83;27436;-49
2023/03/09 10:19:21;;;;;;;10.20;9.60;;;;;;;;;;1727955;83;25614;-49
2023/03/09 10:21:50;;;;;;;6.30;6.03;;;;;;;;;;1728002;83;25551;-51
2023/03/09 10:24:38;;;;;;;10.07;9.47;;;;;;;;;;1728017;83;25688;-50
2023/03/09 10:27:33;;;;;;;8.07;7.63;;;;;;;;;;1728030;83;25587;-49
2023/03/09 10:30:13;;;;;;;9.03;8.53;;;;;;;;;;1727536;83;27653;-49
2023/03/09 10:32:43;;;;;;;9.73;9.20;;;;;;;;;;1703001;83;25845;-49
2023/03/09 10:35:45;;;;;;;12.87;12.00;;;;;;;;;;1726964;83;25724;-50
2023/03/09 10:38:18;;;;;;;12.27;11.03;;;;;;;;;;1726858;83;26027;-50
2023/03/09 10:40:50;;;;;;;8.53;8.10;;;;;;;;;;1783931;80;25532;-51
2023/03/09 10:43:29;;;;;;;9.50;8.90;;;;;;;;;;1794880;80;27522;-49
2023/03/09 10:45:56;;;;;;;;;;;;;;;;;;1797491;80;25653;-51
2023/03/09 10:48:25;;;;;;;9.60;9.10;;;;;;;;;;1794883;80;25541;-49
2023/03/09 10:51:04;;;;;;;7.58;7.25;;;;;;;;;;1794941;78;25930;-52
2023/03/09 10:53:44;;;;;;;10.15;9.60;;;;;;;;;;1795067;80;25428;-48
2023/03/09 10:56:23;;;;;;;10.07;9.53;;;;;;;;;;1794924;80;28024;-53
2023/03/09 10:59:09;;;;;;;13.68;12.73;;;;;;;;;;1775035;80;25616;-48
2023/03/09 11:01:39;;;;;;;8.03;7.63;;;;;;;;;;1765477;80;25550;-49
2023/03/09 11:04:27;;;;;;;8.33;7.93;;;;;;;;;;1774839;80;25555;-52
2023/03/09 11:07:20;;;;;;;9.30;8.80;;;;;;;;;;1748290;80;25329;-51
2023/03/09 11:09:49;;;;;;;8.50;8.03;;;;;;;;;;1794878;80;28436;-50
2023/03/09 11:12:23;;;;;;;10.50;9.70;;;;;;;;;;1774883;80;25522;-51
2023/03/09 11:14:57;;;;;;;10.70;10.00;;;;;;;;;;1773658;80;25499;-50
2023/03/09 11:17:37;;;;;;;13.17;11.87;;;;;;;;;;1774830;80;25551;-50
2023/03/09 11:20:23;;;;;;;16.67;15.43;;;;;;;;;;1794939;80;25352;-50
2023/03/09 11:23:09;;;;;;;10.83;10.20;;;;;;;;;;1794927;80;28121;-49
2023/03/09 11:25:49;;;;;;;11.00;10.33;;;;;;;;;;1774849;80;25310;-50
2023/03/09 11:28:40;;;;;;;9.83;9.08;;;;;;;;;;1794914;80;25284;-51
2023/03/09 11:31:17;;;;;;;9.18;6.58;;;;;;;;;;1774739;80;25622;-51
2023/03/09 11:33:46;;;;;;;12.50;8.18;;;;;;;;;;1773320;80;25637;-50
2023/03/09 11:36:20;;;;;;;32.55;20.45;;;;;;;;;;1773764;80;27427;-51
2023/03/09 11:38:48;;;;;;;22.00;11.80;;;;;;;;;;1746436;80;25655;-51
2023/03/09 11:41:21;;;;;;;10.08;6.55;;;;;;;;;;1774878;80;25552;-49
2023/03/09 11:43:54;;;;;;;10.45;6.80;;;;;;;;;;1774530;80;26024;-50
2023/03/09 11:46:21;;;;;;;9.65;6.42;;;;;;;;;;1792953;80;25444;-50
2023/03/09 11:49:08;;;;;;;12.03;6.62;;;;;;;;;;1774909;80;28207;-49
2023/03/09 11:51:39;;;;;;;9.28;6.42;;;;;;;;;;1742267;82;25940;-50
2023/03/09 11:54:32;;;;;;;11.35;6.62;;;;;;;;;;1743469;82;25343;-52
2023/03/09 11:57:03;;;;;;;11.68;6.92;;;;;;;;;;1743416;82;25531;-51
2023/03/09 11:59:48;;;;;;;10.48;6.62;;;;;;;;;;1742707;82;25358;-50
2023/03/09 12:02:27;;;;;;;9.73;6.40;;;;;;;;;;1743498;82;27369;-52
2023/03/09 12:04:55;;;;;;;13.95;7.90;;;;;;;;;;1740491;82;25482;-50
2023/03/09 12:07:27;;;;;;;14.10;7.47;;;;;;;;;;1743525;82;25470;-50
2023/03/09 12:10:16;;;;;;;13.83;7.67;;;;;;;;;;1742626;82;27659;-50
2023/03/09 12:13:03;;;;;;;12.73;7.60;;;;;;;;;;1741358;82;25913;-51
2023/03/09 12:15:43;;;;;;;12.58;7.80;;;;;;;;;;1742877;82;28133;-50
2023/03/09 12:18:21;;;;;;;12.03;7.60;;;;;;;;;;1743654;82;25562;-52
2023/03/09 12:21:01;;;;;;;12.60;7.60;;;;;;;;;;1743875;82;26013;-49
2023/03/09 12:23:43;;;;;;;;;;;;;;;;;;1746161;82;25623;-50
2023/03/09 12:26:27;;;;;;;13.28;6.50;;;;;;;;;;1742862;82;25338;-49
2023/03/09 12:29:15;;;;;;;10.50;6.62;;;;;;;;;;1775101;80;27541;-50
2023/03/09 12:31:45;;;;;;;10.32;7.47;;;;;;;;;;1774729;80;25138;-53
2023/03/09 12:34:16;;;;;;;10.43;6.97;;;;;;;;;;1774877;80;32290;-51
2023/03/09 12:36:43;;;;;;;11.35;6.30;;;;;;;;;;1794949;80;26088;-51
2023/03/09 12:39:26;;;;;;;10.32;6.45;;;;;;;;;;1775137;80;25275;-49
2023/03/09 12:42:16;;;;;;;12.03;6.50;;;;;;;;;;1795010;80;28157;-50